Time;durP1;ratioP1;P1;durP2;ratioP2;P2;SDS_P1;SDS_P2;PMS_P1;PMS_P2;Temp;Humidity;BMP_temperature;BMP_pressure;BME280_temperature;BME280_humidity;BME280_pressure;Samples;Min_cycle;Max_cycle;Signal;HPM_P1;HPM_P2
2023/05/06 00:01:50;;;;;;;3.35;2.70;;;13.20;62.70;;;;;;4925158;29;20075;-58
2023/05/06 00:04:16;;;;;;;2.75;2.55;;;13.10;62.60;;;;;;4918662;29;20043;-57
2023/05/06 00:06:42;;;;;;;2.83;2.00;;;13.10;62.80;;;;;;4931460;29;20390;-58
2023/05/06 00:09:09;;;;;;;2.78;2.47;;;13.10;62.80;;;;;;4927222;29;20036;-58
2023/05/06 00:11:35;;;;;;;2.65;2.33;;;13.10;62.90;;;;;;4926534;29;20024;-61
2023/05/06 00:14:00;;;;;;;2.92;2.50;;;13.00;63.10;;;;;;4925798;29;20035;-59
2023/05/06 00:16:26;;;;;;;2.78;2.15;;;13.00;63.10;;;;;;4924507;29;20344;-49
2023/05/06 00:18:52;;;;;;;2.72;2.10;;;13.00;63.30;;;;;;4928878;29;20043;-51
2023/05/06 00:21:17;;;;;;;3.17;2.10;;;13.00;63.70;;;;;;4928303;29;20073;-58
2023/05/06 00:23:43;;;;;;;2.40;2.20;;;12.90;64.00;;;;;;4933815;29;20043;-58
2023/05/06 00:26:09;;;;;;;2.83;2.33;;;12.90;64.20;;;;;;4928972;29;20127;-47
2023/05/06 00:28:35;;;;;;;2.95;2.45;;;12.80;63.70;;;;;;4928965;29;20035;-51
2023/05/06 00:31:01;;;;;;;3.45;2.58;;;12.80;64.00;;;;;;4931693;29;20039;-50
2023/05/06 00:33:26;;;;;;;3.80;2.70;;;12.70;64.10;;;;;;4925901;29;20039;-46
2023/05/06 00:35:52;;;;;;;3.28;2.70;;;12.70;64.00;;;;;;4928588;29;20035;-60
2023/05/06 00:38:18;;;;;;;3.42;2.55;;;12.60;63.90;;;;;;4936678;29;20398;-60
2023/05/06 00:40:44;;;;;;;2.88;2.50;;;12.50;63.90;;;;;;4934934;29;20046;-58
2023/05/06 00:43:10;;;;;;;3.47;2.85;;;12.50;64.10;;;;;;4932188;29;20091;-58
2023/05/06 00:45:37;;;;;;;3.72;2.97;;;12.50;64.10;;;;;;4923560;29;20031;-58
2023/05/06 00:48:05;;;;;;;3.33;2.72;;;12.40;64.00;;;;;;4933850;29;20044;-58
2023/05/06 00:50:32;;;;;;;3.70;2.85;;;12.40;64.20;;;;;;4931297;29;20051;-58
2023/05/06 00:52:59;;;;;;;3.60;2.80;;;12.30;64.50;;;;;;4934556;29;20027;-58
2023/05/06 00:55:26;;;;;;;3.55;2.67;;;12.30;64.80;;;;;;4922249;29;20060;-51
2023/05/06 00:57:53;;;;;;;3.72;2.70;;;12.20;65.10;;;;;;4929478;29;20043;-48
2023/05/06 01:00:19;;;;;;;3.92;3.08;;;12.20;65.10;;;;;;4929043;29;20035;-58
2023/05/06 01:02:46;;;;;;;3.10;2.47;;;12.10;65.20;;;;;;4928530;29;20526;-58
2023/05/06 01:05:12;;;;;;;4.95;3.40;;;12.00;65.30;;;;;;4923058;29;20032;-60
2023/05/06 01:07:49;;;;;;;3.47;2.72;;;12.00;65.80;;;;;;4927476;29;20020;-59
2023/05/06 01:10:37;;;;;;;3.40;2.90;;;11.90;66.00;;;;;;4927001;29;20040;-60
2023/05/06 01:13:03;;;;;;;3.30;3.00;;;11.90;66.40;;;;;;4931409;29;21079;-58
2023/05/06 01:15:46;;;;;;;3.83;2.72;;;11.80;66.60;;;;;;4932032;29;20031;-55
2023/05/06 01:18:19;;;;;;;3.45;2.88;;;11.80;66.80;;;;;;4924426;29;20038;-56
2023/05/06 01:20:49;;;;;;;3.20;2.80;;;11.70;67.00;;;;;;4930049;29;20040;-53
2023/05/06 01:23:15;;;;;;;4.75;3.00;;;11.70;67.30;;;;;;4924527;29;20434;-55
2023/05/06 01:25:41;;;;;;;3.28;2.90;;;11.60;67.70;;;;;;4921790;29;20032;-60
2023/05/06 01:28:10;;;;;;;3.72;3.00;;;11.60;67.80;;;;;;4931636;29;20036;-59
2023/05/06 01:30:39;;;;;;;3.72;3.13;;;11.50;68.00;;;;;;4919146;29;20467;-60
2023/05/06 01:33:23;;;;;;;3.83;2.80;;;11.50;68.20;;;;;;4931358;29;20031;-59
2023/05/06 01:35:56;;;;;;;5.75;3.20;;;11.40;68.40;;;;;;4928581;29;20028;-53
2023/05/06 01:38:36;;;;;;;3.53;2.90;;;11.40;68.80;;;;;;4929549;29;20040;-57
2023/05/06 01:41:02;;;;;;;2.85;2.50;;;11.30;69.00;;;;;;4930821;29;20028;-59
2023/05/06 01:43:32;;;;;;;3.85;3.00;;;11.20;69.20;;;;;;4931912;29;20032;-58
2023/05/06 01:46:00;;;;;;;4.15;3.13;;;11.20;69.50;;;;;;4931058;29;20645;-58
2023/05/06 01:48:28;;;;;;;3.72;3.03;;;11.10;69.90;;;;;;4929476;29;20084;-58
2023/05/06 01:50:54;;;;;;;3.85;2.88;;;11.10;70.20;;;;;;4933351;29;20043;-50
2023/05/06 01:53:21;;;;;;;3.00;2.70;;;11.10;70.40;;;;;;4928349;29;20123;-51
2023/05/06 01:55:47;;;;;;;3.33;2.90;;;11.00;70.60;;;;;;4923696;29;20099;-52
2023/05/06 01:58:13;;;;;;;3.05;2.58;;;11.00;70.90;;;;;;4927810;29;20051;-53
2023/05/06 02:00:39;;;;;;;3.75;2.90;;;10.90;71.00;;;;;;4923255;29;20095;-58
2023/05/06 02:03:05;;;;;;;2.85;2.55;;;10.90;71.20;;;;;;4926909;29;20454;-57
2023/05/06 02:05:30;;;;;;;3.33;2.78;;;10.90;71.70;;;;;;4930906;29;20486;-49
2023/05/06 02:07:56;;;;;;;3.67;2.45;;;10.80;71.90;;;;;;4924150;29;20045;-50
2023/05/06 02:10:21;;;;;;;2.95;2.60;;;10.80;72.00;;;;;;4925473;29;20040;-58
2023/05/06 02:12:48;;;;;;;2.88;2.47;;;10.80;72.10;;;;;;4926734;29;20035;-58
2023/05/06 02:15:14;;;;;;;2.95;2.42;;;10.70;72.20;;;;;;4926238;29;20039;-58
2023/05/06 02:17:40;;;;;;;2.90;2.40;;;10.70;72.60;;;;;;4924227;29;20042;-58
2023/05/06 02:20:08;;;;;;;2.85;2.30;;;10.60;72.60;;;;;;4923331;29;20756;-57
2023/05/06 02:22:34;;;;;;;3.40;2.70;;;10.60;72.90;;;;;;4921831;29;20118;-58
2023/05/06 02:25:00;;;;;;;3.22;2.53;;;10.60;72.90;;;;;;4928650;29;20059;-58
2023/05/06 02:27:26;;;;;;;3.35;2.78;;;10.60;73.00;;;;;;4924064;29;20034;-49
2023/05/06 02:29:52;;;;;;;2.50;2.33;;;10.60;73.10;;;;;;4916565;29;20451;-53
2023/05/06 02:32:17;;;;;;;2.95;2.67;;;10.50;73.20;;;;;;4924698;29;20032;-56
2023/05/06 02:34:43;;;;;;;2.63;2.42;;;10.50;73.20;;;;;;4928792;29;20478;-55
2023/05/06 02:37:08;;;;;;;2.80;2.42;;;10.50;73.20;;;;;;4928026;29;20055;-58
2023/05/06 02:39:34;;;;;;;2.42;2.22;;;10.50;73.30;;;;;;4922498;29;20663;-57
2023/05/06 02:42:01;;;;;;;3.08;2.28;;;10.50;73.30;;;;;;4920961;29;20040;-57
2023/05/06 02:44:27;;;;;;;2.85;2.58;;;10.50;73.40;;;;;;4917644;29;20039;-58
2023/05/06 02:46:52;;;;;;;3.70;2.58;;;10.50;73.40;;;;;;4926165;29;20027;-58
2023/05/06 02:49:18;;;;;;;2.58;2.38;;;10.50;73.50;;;;;;4922618;29;20043;-58
2023/05/06 02:51:43;;;;;;;2.30;2.15;;;10.50;73.40;;;;;;4919712;29;20091;-55
2023/05/06 02:54:09;;;;;;;2.17;2.08;;;10.50;73.60;;;;;;4927467;29;20090;-51
2023/05/06 02:56:35;;;;;;;2.47;2.28;;;10.50;73.90;;;;;;4924443;29;20095;-58
2023/05/06 02:59:00;;;;;;;2.30;2.10;;;10.50;73.80;;;;;;4923449;29;20730;-58
2023/05/06 03:01:26;;;;;;;2.50;2.30;;;10.50;73.70;;;;;;4920300;29;20070;-53
2023/05/06 03:03:51;;;;;;;2.60;2.40;;;10.50;73.60;;;;;;4927580;29;20059;-53
2023/05/06 03:06:17;;;;;;;2.20;2.00;;;10.50;73.60;;;;;;4922942;29;20064;-54
2023/05/06 03:08:43;;;;;;;2.10;2.00;;;10.50;73.60;;;;;;4925039;29;20115;-53
2023/05/06 03:11:08;;;;;;;1.90;1.80;;;10.60;73.90;;;;;;4930963;29;20486;-58
2023/05/06 03:13:34;;;;;;;2.67;2.08;;;10.60;73.90;;;;;;4928637;29;20150;-57
2023/05/06 03:16:01;;;;;;;2.53;2.13;;;10.70;73.60;;;;;;4921584;29;20038;-57
2023/05/06 03:18:26;;;;;;;2.00;1.90;;;10.70;73.60;;;;;;4933032;29;20079;-58
2023/05/06 03:20:52;;;;;;;2.40;2.00;;;10.80;73.40;;;;;;4924643;29;20054;-57
2023/05/06 03:23:18;;;;;;;1.95;1.85;;;10.90;73.20;;;;;;4927028;29;20111;-55
2023/05/06 03:25:43;;;;;;;2.17;1.98;;;11.00;72.90;;;;;;4919616;29;20137;-50
2023/05/06 03:28:10;;;;;;;2.92;1.90;;;11.10;72.80;;;;;;4924202;29;20032;-48
2023/05/06 03:30:36;;;;;;;2.17;1.80;;;11.20;72.60;;;;;;4918597;29;20042;-51
2023/05/06 03:33:01;;;;;;;2.13;2.00;;;11.30;72.50;;;;;;4926563;29;20035;-53
2023/05/06 03:35:27;;;;;;;2.05;1.95;;;11.40;72.30;;;;;;4924448;29;21426;-57
2023/05/06 03:37:53;;;;;;;2.63;1.80;;;11.50;72.30;;;;;;4918092;29;20043;-52
2023/05/06 03:40:19;;;;;;;1.80;1.70;;;11.70;72.50;;;;;;4922930;29;20120;-47
2023/05/06 03:42:45;;;;;;;1.88;1.77;;;11.80;72.50;;;;;;4918591;29;20032;-47
2023/05/06 03:45:11;;;;;;;1.85;1.75;;;11.90;72.00;;;;;;4915585;29;20566;-53
2023/05/06 03:47:37;;;;;;;2.25;1.80;;;12.00;71.60;;;;;;4924354;29;20059;-48
2023/05/06 03:50:03;;;;;;;2.15;1.92;;;12.20;71.70;;;;;;4931753;29;20387;-55
2023/05/06 03:52:29;;;;;;;1.83;1.73;;;12.30;71.80;;;;;;4933456;29;20083;-51
2023/05/06 03:54:54;;;;;;;1.63;1.52;;;12.60;72.30;;;;;;4925593;29;20452;-53
2023/05/06 03:57:20;;;;;;;1.90;1.70;;;12.90;72.10;;;;;;4931263;29;20051;-47
2023/05/06 03:59:46;;;;;;;1.80;1.70;;;13.30;71.60;;;;;;4928767;29;20087;-48
2023/05/06 04:02:11;;;;;;;1.63;1.52;;;13.80;71.10;;;;;;4928700;29;20123;-50
2023/05/06 04:04:37;;;;;;;2.05;1.55;;;14.50;70.10;;;;;;4930051;29;20039;-56
2023/05/06 04:07:02;;;;;;;2.20;1.27;;;15.20;68.60;;;;;;4923454;29;20047;-51
2023/05/06 04:09:30;;;;;;;2.03;1.42;;;15.90;66.80;;;;;;4929684;29;20024;-52
2023/05/06 04:11:55;;;;;;;2.58;1.42;;;16.50;65.50;;;;;;4927949;29;20031;-49
2023/05/06 04:14:21;;;;;;;1.50;1.40;;;17.10;64.30;;;;;;4927366;29;20031;-48
2023/05/06 04:16:47;;;;;;;1.45;1.35;;;17.70;62.80;;;;;;4926820;29;20103;-55
2023/05/06 04:19:13;;;;;;;1.67;1.30;;;18.20;61.60;;;;;;4926218;29;20028;-47
2023/05/06 04:21:38;;;;;;;1.15;1.15;;;18.40;60.00;;;;;;4926898;29;20371;-50
2023/05/06 04:24:04;;;;;;;1.13;1.10;;;18.30;59.10;;;;;;4925968;29;20050;-52
2023/05/06 04:26:30;;;;;;;1.30;1.20;;;18.10;58.80;;;;;;4922743;29;20027;-54
2023/05/06 04:28:56;;;;;;;1.42;1.33;;;17.70;58.70;;;;;;4929110;29;21891;-48
2023/05/06 04:31:22;;;;;;;1.50;1.40;;;17.50;58.90;;;;;;4925624;29;20672;-48
2023/05/06 04:33:48;;;;;;;1.33;1.23;;;17.30;59.00;;;;;;4923375;29;20039;-50
2023/05/06 04:36:13;;;;;;;1.20;1.17;;;17.40;58.90;;;;;;4920724;29;20074;-48
2023/05/06 04:38:39;;;;;;;1.10;1.10;;;17.30;58.40;;;;;;4927548;29;20651;-56
2023/05/06 04:41:05;;;;;;;1.15;1.10;;;17.30;58.60;;;;;;4928273;29;20095;-54
2023/05/06 04:43:31;;;;;;;1.38;1.27;;;17.50;58.70;;;;;;4927720;29;20039;-50
2023/05/06 04:45:57;;;;;;;1.27;1.17;;;18.00;58.20;;;;;;4929566;29;20028;-48
2023/05/06 04:48:23;;;;;;;0.98;0.95;;;18.50;57.80;;;;;;4925619;29;20035;-55
2023/05/06 04:50:49;;;;;;;1.23;1.20;;;19.00;56.80;;;;;;4927406;29;20171;-54
2023/05/06 04:53:15;;;;;;;1.27;1.17;;;19.30;56.10;;;;;;4928285;29;20394;-52
2023/05/06 04:55:41;;;;;;;1.38;1.02;;;19.50;55.60;;;;;;4927267;29;20055;-55
2023/05/06 04:58:07;;;;;;;1.40;1.27;;;19.60;55.40;;;;;;4931013;29;20036;-52
2023/05/06 05:00:33;;;;;;;1.40;1.30;;;19.80;55.30;;;;;;4922807;29;20391;-57
2023/05/06 05:02:58;;;;;;;1.60;1.50;;;20.00;54.90;;;;;;4932022;29;20256;-53
2023/05/06 05:05:25;;;;;;;1.73;1.63;;;20.10;54.40;;;;;;4922531;29;20027;-50
2023/05/06 05:07:51;;;;;;;1.85;1.70;;;20.10;54.00;;;;;;4925811;29;20071;-47
2023/05/06 05:10:17;;;;;;;1.40;1.30;;;20.00;53.70;;;;;;4924986;29;20114;-48
2023/05/06 05:12:42;;;;;;;1.40;1.30;;;19.80;53.60;;;;;;4921869;29;20127;-54
2023/05/06 05:15:08;;;;;;;1.40;1.30;;;19.60;53.50;;;;;;4923893;29;20040;-49
2023/05/06 05:17:34;;;;;;;1.70;1.60;;;19.20;53.60;;;;;;4924241;29;20024;-50
2023/05/06 05:20:00;;;;;;;2.03;1.73;;;18.90;53.90;;;;;;4926689;29;20494;-54
2023/05/06 05:22:26;;;;;;;1.75;1.65;;;18.60;54.70;;;;;;4924929;29;20047;-52
2023/05/06 05:24:51;;;;;;;1.80;1.70;;;18.40;54.20;;;;;;4927378;29;20028;-51
2023/05/06 05:27:17;;;;;;;1.30;1.17;;;18.40;53.80;;;;;;4923592;29;20060;-49
2023/05/06 05:29:42;;;;;;;2.38;1.77;;;18.30;53.70;;;;;;4928076;29;20031;-50
2023/05/06 05:32:08;;;;;;;1.38;1.27;;;18.10;53.60;;;;;;4929589;29;20074;-47
2023/05/06 05:34:34;;;;;;;1.25;1.23;;;17.70;53.90;;;;;;4929464;29;20032;-49
2023/05/06 05:36:59;;;;;;;1.58;1.48;;;17.50;54.30;;;;;;4926774;29;20074;-55
2023/05/06 05:39:25;;;;;;;1.52;1.42;;;17.10;54.70;;;;;;4922233;29;20047;-50
2023/05/06 05:41:51;;;;;;;1.48;1.38;;;16.80;55.30;;;;;;4921903;29;20051;-48
2023/05/06 05:44:16;;;;;;;1.88;1.70;;;16.50;55.70;;;;;;4928628;29;20036;-49
2023/05/06 05:46:42;;;;;;;2.05;1.67;;;16.30;56.10;;;;;;4927298;29;20032;-49
2023/05/06 05:49:08;;;;;;;1.95;1.50;;;16.10;56.30;;;;;;4929228;29;20035;-51
2023/05/06 05:51:33;;;;;;;1.80;1.70;;;15.90;56.50;;;;;;4923764;29;20043;-55
2023/05/06 05:53:59;;;;;;;2.53;2.13;;;15.70;56.90;;;;;;4919505;29;20035;-49
2023/05/06 05:56:25;;;;;;;1.88;1.60;;;15.60;57.30;;;;;;4923330;29;20048;-51
2023/05/06 05:58:50;;;;;;;1.65;1.55;;;15.60;57.60;;;;;;4926947;29;20038;-51
2023/05/06 06:01:16;;;;;;;1.60;1.50;;;15.50;57.80;;;;;;4922461;29;20047;-47
2023/05/06 06:03:42;;;;;;;1.65;1.55;;;15.50;58.00;;;;;;4926311;29;20471;-50
2023/05/06 06:06:08;;;;;;;2.15;1.85;;;15.60;58.20;;;;;;4928215;29;20035;-51
2023/05/06 06:08:34;;;;;;;2.30;1.48;;;15.60;58.20;;;;;;4919965;29;20028;-48
2023/05/06 06:11:04;;;;;;;2.35;1.77;;;15.60;57.90;;;;;;4924725;29;20032;-54
2023/05/06 06:13:30;;;;;;;1.67;1.58;;;15.60;58.10;;;;;;4928719;29;20122;-52
2023/05/06 06:15:56;;;;;;;1.50;1.40;;;15.50;58.10;;;;;;4927717;29;20039;-51
2023/05/06 06:18:23;;;;;;;1.50;1.40;;;15.40;58.50;;;;;;4923250;29;20134;-53
2023/05/06 06:20:49;;;;;;;1.50;1.40;;;15.40;58.60;;;;;;4916561;29;20036;-53
2023/05/06 06:23:15;;;;;;;1.80;1.67;;;15.40;58.90;;;;;;4923075;29;20119;-52
2023/05/06 06:25:41;;;;;;;1.40;1.40;;;15.40;59.00;;;;;;4925885;29;20040;-51
2023/05/06 06:28:06;;;;;;;1.35;1.25;;;15.50;59.10;;;;;;4919456;29;20448;-53
2023/05/06 06:30:32;;;;;;;2.05;1.52;;;15.50;59.00;;;;;;4925027;29;20123;-52
2023/05/06 06:33:00;;;;;;;1.80;1.70;;;15.50;59.00;;;;;;4920852;29;20031;-52
2023/05/06 06:35:26;;;;;;;1.60;1.50;;;15.40;59.30;;;;;;4923183;29;20043;-55
2023/05/06 06:37:52;;;;;;;1.60;1.50;;;15.40;59.30;;;;;;4921035;29;20035;-54
2023/05/06 06:40:18;;;;;;;2.20;1.77;;;15.40;59.50;;;;;;4924280;29;20122;-51
2023/05/06 06:42:45;;;;;;;1.60;1.50;;;15.40;59.40;;;;;;4920252;29;20080;-53
2023/05/06 06:45:12;;;;;;;1.63;1.52;;;15.30;59.40;;;;;;4918809;29;20118;-56
2023/05/06 06:47:38;;;;;;;2.78;1.55;;;15.30;59.40;;;;;;4921784;29;20051;-54
2023/05/06 06:50:05;;;;;;;1.70;1.60;;;15.30;59.70;;;;;;4929704;29;20034;-53
2023/05/06 06:52:31;;;;;;;1.75;1.65;;;15.20;59.50;;;;;;4925718;29;20036;-55
2023/05/06 06:54:57;;;;;;;1.60;1.50;;;15.20;59.40;;;;;;4922788;29;20047;-52
2023/05/06 06:57:22;;;;;;;1.70;1.60;;;15.20;59.50;;;;;;4921197;29;20037;-55
2023/05/06 06:59:50;;;;;;;1.50;1.40;;;15.30;59.60;;;;;;4917548;29;20092;-51
2023/05/06 07:02:16;;;;;;;1.35;1.30;;;15.30;59.40;;;;;;4914476;29;20127;-57
2023/05/06 07:04:42;;;;;;;1.48;1.38;;;15.30;59.40;;;;;;4916637;29;20467;-49
2023/05/06 07:07:07;;;;;;;1.50;1.40;;;15.20;59.50;;;;;;4918531;29;20114;-49
2023/05/06 07:09:33;;;;;;;1.85;1.75;;;15.10;59.50;;;;;;4927388;29;20446;-50
2023/05/06 07:12:00;;;;;;;1.42;1.33;;;15.10;59.80;;;;;;4927481;29;20031;-53
2023/05/06 07:14:26;;;;;;;1.88;1.50;;;15.10;59.90;;;;;;4927045;29;20034;-46
2023/05/06 07:16:51;;;;;;;1.60;1.50;;;15.00;59.90;;;;;;4922010;29;20398;-51
2023/05/06 07:19:17;;;;;;;1.60;1.50;;;15.00;59.70;;;;;;4921750;29;20587;-51
2023/05/06 07:21:43;;;;;;;1.90;1.80;;;15.00;59.80;;;;;;4923363;29;20039;-50
2023/05/06 07:24:08;;;;;;;1.85;1.60;;;14.90;60.00;;;;;;4918667;29;20053;-52
2023/05/06 07:26:35;;;;;;;1.48;1.38;;;14.90;60.00;;;;;;4920578;29;20036;-54
2023/05/06 07:29:01;;;;;;;1.75;1.65;;;14.90;60.10;;;;;;4924058;29;20115;-51
2023/05/06 07:31:27;;;;;;;1.70;1.60;;;14.80;60.20;;;;;;4923631;29;20114;-50
2023/05/06 07:33:52;;;;;;;1.60;1.50;;;14.80;60.30;;;;;;4919639;29;20123;-54
2023/05/06 07:36:18;;;;;;;1.70;1.60;;;14.80;60.30;;;;;;4921549;29;20040;-48
2023/05/06 07:38:44;;;;;;;1.60;1.50;;;14.80;60.50;;;;;;4919321;29;20039;-54
2023/05/06 07:41:10;;;;;;;1.58;1.48;;;14.80;60.50;;;;;;4920167;29;20032;-50
2023/05/06 07:43:35;;;;;;;1.58;1.50;;;14.80;60.30;;;;;;4922938;29;20042;-49
2023/05/06 07:46:01;;;;;;;1.63;1.52;;;14.80;60.30;;;;;;4913502;29;20032;-57
2023/05/06 07:48:31;;;;;;;2.13;1.63;;;14.80;60.10;;;;;;4919961;29;20040;-52
2023/05/06 07:50:58;;;;;;;1.45;1.35;;;14.80;60.20;;;;;;4916151;29;20674;-56
2023/05/06 07:53:23;;;;;;;1.92;1.77;;;14.80;60.10;;;;;;4919616;29;20036;-53
2023/05/06 07:55:51;;;;;;;1.60;1.38;;;14.80;60.20;;;;;;4920238;29;20537;-55
2023/05/06 07:58:17;;;;;;;1.23;1.15;;;14.80;60.10;;;;;;4924470;29;20052;-53
2023/05/06 08:00:43;;;;;;;1.52;1.35;;;14.80;60.20;;;;;;4918016;29;20028;-55
2023/05/06 08:03:08;;;;;;;1.55;1.45;;;14.70;60.00;;;;;;4918927;29;20059;-59
2023/05/06 08:05:34;;;;;;;1.65;1.50;;;14.70;60.10;;;;;;4924037;29;20086;-52
2023/05/06 08:08:00;;;;;;;1.80;1.70;;;14.70;60.10;;;;;;4924818;29;20060;-53
2023/05/06 08:10:25;;;;;;;1.15;1.15;;;14.70;60.00;;;;;;4921371;29;20447;-49
2023/05/06 08:12:51;;;;;;;1.70;1.60;;;14.70;59.80;;;;;;4925797;29;20028;-47
2023/05/06 08:15:17;;;;;;;1.80;1.70;;;14.70;60.00;;;;;;4920083;29;20062;-52
2023/05/06 08:17:42;;;;;;;2.05;1.75;;;14.70;59.90;;;;;;4924256;29;20027;-55
2023/05/06 08:20:09;;;;;;;1.70;1.50;;;14.70;59.70;;;;;;4924427;29;20931;-48
2023/05/06 08:22:34;;;;;;;1.58;1.48;;;14.60;59.40;;;;;;4922546;29;20043;-54
2023/05/06 08:25:00;;;;;;;1.35;1.33;;;14.60;59.40;;;;;;4918252;29;20041;-57
2023/05/06 08:27:26;;;;;;;2.30;1.63;;;14.60;59.10;;;;;;4917726;29;22383;-55
2023/05/06 08:29:52;;;;;;;1.67;1.50;;;14.60;59.30;;;;;;4909344;29;20118;-55
2023/05/06 08:32:17;;;;;;;1.50;1.42;;;14.50;59.20;;;;;;4920222;29;20036;-52
2023/05/06 08:34:43;;;;;;;1.50;1.40;;;14.50;58.90;;;;;;4916302;29;20032;-51
2023/05/06 08:37:09;;;;;;;2.25;1.40;;;14.50;58.40;;;;;;4919133;29;20063;-48
2023/05/06 08:39:34;;;;;;;1.30;1.20;;;14.50;58.00;;;;;;4926908;29;20127;-55
2023/05/06 08:42:02;;;;;;;1.58;1.48;;;14.40;57.50;;;;;;4924675;29;20047;-52
2023/05/06 08:44:28;;;;;;;1.55;1.40;;;14.40;57.10;;;;;;4925851;29;20047;-52
2023/05/06 08:46:54;;;;;;;1.40;1.25;;;14.40;56.50;;;;;;4913090;29;20047;-54
2023/05/06 08:49:20;;;;;;;1.45;1.45;;;14.30;55.90;;;;;;4915363;29;20032;-50
2023/05/06 08:51:49;;;;;;;1.55;1.45;;;14.30;55.90;;;;;;4923306;29;20039;-53
2023/05/06 08:54:17;;;;;;;2.00;1.60;;;14.20;55.60;;;;;;4920351;29;20039;-50
2023/05/06 08:56:46;;;;;;;1.85;1.75;;;14.20;55.60;;;;;;4920632;29;20451;-58
2023/05/06 08:59:12;;;;;;;1.40;1.30;;;14.20;55.60;;;;;;4922719;29;20440;-48
2023/05/06 09:01:38;;;;;;;1.88;1.48;;;14.20;55.70;;;;;;4922549;29;20489;-53
2023/05/06 09:04:06;;;;;;;1.50;1.40;;;14.20;55.20;;;;;;4920807;29;20510;-52
2023/05/06 09:06:33;;;;;;;1.60;1.50;;;14.20;54.70;;;;;;4923546;29;20066;-55
2023/05/06 09:08:59;;;;;;;1.40;1.30;;;14.10;54.50;;;;;;4923889;29;20075;-54
2023/05/06 09:11:29;;;;;;;1.70;1.60;;;14.10;54.30;;;;;;4922483;29;20721;-54
2023/05/06 09:14:14;;;;;;;1.40;1.30;;;14.10;54.10;;;;;;4929167;29;20066;-54
2023/05/06 09:16:44;;;;;;;1.58;1.50;;;14.10;53.50;;;;;;4920477;29;20032;-52
2023/05/06 09:19:11;;;;;;;1.55;1.35;;;14.10;53.70;;;;;;4925122;29;20390;-51
2023/05/06 09:21:38;;;;;;;1.48;1.38;;;14.10;53.80;;;;;;4923559;29;20744;-55
2023/05/06 09:24:06;;;;;;;2.15;1.38;;;14.10;53.40;;;;;;4923572;29;20550;-54
2023/05/06 09:26:34;;;;;;;1.58;1.48;;;14.10;53.00;;;;;;4922113;29;20063;-58
2023/05/06 09:29:00;;;;;;;1.13;1.13;;;14.10;52.90;;;;;;4918262;29;20448;-56
2023/05/06 09:31:27;;;;;;;1.55;1.45;;;14.10;52.70;;;;;;4914378;29;20038;-50
2023/05/06 09:33:54;;;;;;;1.23;1.23;;;14.10;52.50;;;;;;4911811;29;20031;-51
2023/05/06 09:36:21;;;;;;;2.38;1.90;;;14.00;52.20;;;;;;4916618;29;20382;-54
2023/05/06 09:38:47;;;;;;;1.02;1.02;;;14.10;52.30;;;;;;4919466;29;20039;-53
2023/05/06 09:41:13;;;;;;;2.67;1.55;;;14.10;52.40;;;;;;4909979;29;20130;-53
2023/05/06 09:43:43;;;;;;;1.52;1.35;;;14.00;52.50;;;;;;4919196;29;20054;-53
2023/05/06 09:46:11;;;;;;;1.40;1.30;;;14.00;52.40;;;;;;4922557;29;20032;-48
2023/05/06 09:48:37;;;;;;;2.15;1.40;;;14.10;52.30;;;;;;4925790;29;20035;-49
2023/05/06 09:51:06;;;;;;;2.78;1.80;;;14.00;51.90;;;;;;4923387;29;20129;-50
2023/05/06 09:53:33;;;;;;;1.60;1.50;;;14.00;52.10;;;;;;4925014;29;20027;-49
2023/05/06 09:56:00;;;;;;;1.33;1.25;;;14.10;51.70;;;;;;4922701;29;20051;-54
2023/05/06 09:58:28;;;;;;;1.67;1.58;;;14.10;51.20;;;;;;4922467;29;20028;-57
2023/05/06 10:00:54;;;;;;;1.60;1.50;;;14.00;51.20;;;;;;4923589;29;20116;-48
2023/05/06 10:03:21;;;;;;;1.48;1.38;;;14.10;51.20;;;;;;4925779;29;20130;-48
2023/05/06 10:05:47;;;;;;;1.30;1.30;;;14.00;51.20;;;;;;4924730;29;20035;-49
2023/05/06 10:08:17;;;;;;;1.63;1.52;;;14.00;50.70;;;;;;4922224;29;20063;-51
2023/05/06 10:10:44;;;;;;;1.60;1.50;;;14.00;50.60;;;;;;4923970;29;20474;-53
2023/05/06 10:13:10;;;;;;;1.20;1.20;;;14.00;50.80;;;;;;4924036;29;20059;-51
2023/05/06 10:15:37;;;;;;;1.55;1.45;;;14.00;50.80;;;;;;4922048;29;20031;-53
2023/05/06 10:18:07;;;;;;;1.65;1.55;;;14.00;50.80;;;;;;4921511;29;20032;-52
2023/05/06 10:20:35;;;;;;;2.53;1.40;;;14.00;50.70;;;;;;4919642;29;20040;-55
2023/05/06 10:23:11;;;;;;;1.42;1.30;;;14.00;50.60;;;;;;4917263;29;20134;-49
2023/05/06 10:25:42;;;;;;;1.73;1.23;;;14.00;50.40;;;;;;4919729;29;20106;-49
2023/05/06 10:28:09;;;;;;;1.80;1.70;;;14.00;50.50;;;;;;4921385;29;20028;-53
2023/05/06 10:30:38;;;;;;;1.63;1.52;;;14.00;50.80;;;;;;4920076;29;20040;-52
2023/05/06 10:33:06;;;;;;;1.58;1.48;;;14.10;51.60;;;;;;4919775;29;20675;-49
2023/05/06 10:35:45;;;;;;;1.75;1.55;;;14.10;51.00;;;;;;4922528;29;20111;-50
2023/05/06 10:38:22;;;;;;;1.63;1.35;;;14.10;51.10;;;;;;4921602;29;20035;-49
2023/05/06 10:40:49;;;;;;;1.48;1.40;;;14.10;50.80;;;;;;4912679;29;20043;-52
2023/05/06 10:43:31;;;;;;;1.58;1.48;;;14.10;50.50;;;;;;4919047;29;20426;-51
2023/05/06 10:46:07;;;;;;;2.05;1.60;;;14.10;50.60;;;;;;4922218;29;20028;-54
2023/05/06 10:48:35;;;;;;;1.67;1.55;;;14.10;50.30;;;;;;4924956;29;20028;-54
2023/05/06 10:51:31;;;;;;;1.50;1.42;;;14.10;50.40;;;;;;4927573;29;20434;-50
2023/05/06 10:54:07;;;;;;;2.55;2.35;;;14.10;50.00;;;;;;4916796;29;20103;-48
2023/05/06 10:56:36;;;;;;;1.95;1.85;;;14.10;50.30;;;;;;4925539;29;20048;-54
2023/05/06 10:59:07;;;;;;;2.00;1.90;;;14.10;50.10;;;;;;4920751;29;20035;-52
2023/05/06 11:01:43;;;;;;;1.50;1.40;;;14.10;49.90;;;;;;4917611;29;20035;-52
2023/05/06 11:04:14;;;;;;;2.05;1.85;;;14.10;49.90;;;;;;4921204;29;20033;-52
2023/05/06 11:06:41;;;;;;;2.05;1.77;;;14.10;50.00;;;;;;4921093;29;20036;-53
2023/05/06 11:09:22;;;;;;;2.10;2.00;;;14.10;50.20;;;;;;4921279;29;20866;-50
2023/05/06 11:11:52;;;;;;;2.17;1.98;;;14.20;49.60;;;;;;4918176;29;20127;-51
2023/05/06 11:14:29;;;;;;;2.70;2.47;;;14.20;49.60;;;;;;4925133;29;20024;-51
2023/05/06 11:16:57;;;;;;;2.75;1.73;;;14.10;49.50;;;;;;4918980;29;20032;-50
2023/05/06 11:19:30;;;;;;;2.47;1.98;;;14.20;49.30;;;;;;4925405;29;20130;-52
2023/05/06 11:21:58;;;;;;;2.40;2.20;;;14.10;49.10;;;;;;4920494;29;20043;-52
2023/05/06 11:24:29;;;;;;;2.03;1.85;;;14.10;49.50;;;;;;4923325;29;20559;-51
2023/05/06 11:26:56;;;;;;;;;;;14.20;49.10;;;;;;4921257;29;20123;-50
2023/05/06 11:29:22;;;;;;;3.00;2.20;;;14.10;49.10;;;;;;4924484;29;19942;-51
2023/05/06 11:31:49;;;;;;;2.58;2.05;;;14.10;49.40;;;;;;4921244;29;20067;-53
2023/05/06 11:34:29;;;;;;;2.30;2.10;;;14.10;49.10;;;;;;4928073;29;20036;-49
2023/05/06 11:37:06;;;;;;;2.47;2.27;;;14.20;48.90;;;;;;4919239;29;20070;-48
2023/05/06 11:39:33;;;;;;;3.20;2.17;;;14.10;49.00;;;;;;4919860;29;20027;-52
2023/05/06 11:42:03;;;;;;;2.50;2.30;;;14.10;48.90;;;;;;4914652;29;20039;-49
2023/05/06 11:44:36;;;;;;;2.13;1.92;;;14.20;48.80;;;;;;4923578;29;20050;-54
2023/05/06 11:47:06;;;;;;;3.75;2.20;;;14.20;48.50;;;;;;4924493;29;20036;-54
2023/05/06 11:49:40;;;;;;;2.10;1.90;;;14.20;48.80;;;;;;4918682;29;20101;-48
2023/05/06 11:52:07;;;;;;;3.53;2.33;;;14.20;48.70;;;;;;4916269;29;20032;-57
2023/05/06 11:54:35;;;;;;;1.90;1.70;;;14.20;48.50;;;;;;4922390;29;20694;-53
2023/05/06 11:57:02;;;;;;;2.60;2.10;;;14.20;48.30;;;;;;4928378;29;20143;-50
2023/05/06 11:59:38;;;;;;;2.00;1.80;;;14.20;48.50;;;;;;4924873;29;20036;-50
2023/05/06 12:02:13;;;;;;;2.20;2.00;;;14.20;48.50;;;;;;4919754;29;20047;-50
2023/05/06 12:04:44;;;;;;;3.63;2.10;;;14.20;48.40;;;;;;4922663;29;20027;-51
2023/05/06 12:07:11;;;;;;;2.43;2.17;;;14.20;48.50;;;;;;4920484;29;20039;-50
2023/05/06 12:09:42;;;;;;;2.20;2.00;;;14.20;48.10;;;;;;4927587;29;20281;-50
2023/05/06 12:12:09;;;;;;;1.92;1.80;;;14.20;48.50;;;;;;4922956;29;20634;-54
2023/05/06 12:14:39;;;;;;;1.75;1.65;;;14.20;48.00;;;;;;4926650;29;20431;-49
2023/05/06 12:17:05;;;;;;;1.95;1.80;;;14.20;48.40;;;;;;4927455;29;20035;-46
2023/05/06 12:19:31;;;;;;;2.95;1.80;;;14.20;47.50;;;;;;4922854;29;20747;-53
2023/05/06 12:22:25;;;;;;;2.78;1.88;;;14.20;47.80;;;;;;4921684;29;20067;-52
2023/05/06 12:24:51;;;;;;;1.90;1.80;;;14.20;48.20;;;;;;4927820;29;20514;-53
2023/05/06 12:27:33;;;;;;;2.55;2.08;;;14.20;47.70;;;;;;4923037;29;20050;-47
2023/05/06 12:29:59;;;;;;;2.83;2.38;;;14.20;47.60;;;;;;4924325;29;20671;-50
2023/05/06 12:32:25;;;;;;;2.13;1.92;;;14.20;47.70;;;;;;4929715;29;20035;-50
2023/05/06 12:34:51;;;;;;;2.10;1.80;;;14.20;48.00;;;;;;4923029;29;20036;-55
2023/05/06 12:37:28;;;;;;;1.77;1.67;;;14.20;47.60;;;;;;4928558;29;22461;-50
2023/05/06 12:39:53;;;;;;;2.40;1.90;;;14.20;47.40;;;;;;4922751;29;20119;-53
2023/05/06 12:42:21;;;;;;;3.08;2.33;;;14.20;47.70;;;;;;4923092;29;20039;-50
2023/05/06 12:44:46;;;;;;;1.80;1.70;;;14.20;48.10;;;;;;4921103;29;20091;-55
2023/05/06 12:47:24;;;;;;;2.10;1.90;;;14.20;47.80;;;;;;4927758;29;20059;-55
2023/05/06 12:49:57;;;;;;;2.22;1.88;;;14.20;47.50;;;;;;4925037;29;20031;-54